createdAt,value
2022-10-02T00:00:07.264Z,81.10
2022-10-02T00:01:32.588Z,81.20
2022-10-02T00:02:40.694Z,80.90
2022-10-02T00:03:44.646Z,80.90
2022-10-02T00:04:54.301Z,81.10
2022-10-02T00:06:05.206Z,81.10
2022-10-02T00:07:10.133Z,80.80
2022-10-02T00:08:25.782Z,80.80
2022-10-02T00:09:38.873Z,80.80
2022-10-02T00:10:54.993Z,80.80
2022-10-02T00:12:00.002Z,80.70
2022-10-02T00:13:07.512Z,80.50
2022-10-02T00:14:16.801Z,80.50
2022-10-02T00:15:27.490Z,80.50
2022-10-02T00:16:38.566Z,80.50
2022-10-02T00:17:44.776Z,80.50
2022-10-02T00:18:49.071Z,80.40
2022-10-02T00:19:56.524Z,80.40
2022-10-02T00:21:22.819Z,80.20
2022-10-02T00:22:44.502Z,80.50
2022-10-02T00:23:51.451Z,80.50
2022-10-02T00:25:03.365Z,80.50
2022-10-02T00:26:25.490Z,80.30
2022-10-02T00:27:35.893Z,80.30
2022-10-02T00:28:47.784Z,80.40
2022-10-02T00:29:56.137Z,80.60
2022-10-02T00:31:17.344Z,80.40
2022-10-02T00:32:44.426Z,80.50
2022-10-02T00:34:21.831Z,80.30
2022-10-02T00:35:57.440Z,80.70
2022-10-02T00:37:07.939Z,80.80
2022-10-02T00:38:18.499Z,80.80
2022-10-02T00:39:26.114Z,80.50
2022-10-02T00:40:48.948Z,80.50
2022-10-02T00:41:59.658Z,80.70
2022-10-02T00:43:27.615Z,80.30
2022-10-02T00:44:51.515Z,80.60
2022-10-02T00:46:13.307Z,80.80
2022-10-02T00:47:30.290Z,80.70
2022-10-02T00:48:40.718Z,80.50
2022-10-02T00:49:57.498Z,80.40
2022-10-02T00:51:23.737Z,80.40
2022-10-02T00:52:55.798Z,80.20
2022-10-02T00:54:28.169Z,80.60
2022-10-02T00:55:52.931Z,80.70
2022-10-02T00:57:03.314Z,80.50
2022-10-02T00:58:13.032Z,80.40
2022-10-02T00:59:26.385Z,80.20
2022-10-02T01:00:28.309Z,80.20
2022-10-02T01:01:41.794Z,80.00
2022-10-02T01:02:53.799Z,80.10
2022-10-02T01:03:56.567Z,79.80
2022-10-02T01:05:00.674Z,80.00
2022-10-02T01:06:02.939Z,80.10
2022-10-02T01:07:10.153Z,80.00
2022-10-02T01:08:12.842Z,79.80
2022-10-02T01:09:15.157Z,79.80
2022-10-02T01:10:17.712Z,79.90
2022-10-02T01:11:21.564Z,79.70
2022-10-02T01:12:24.312Z,79.80
2022-10-02T01:13:26.802Z,79.70
2022-10-02T01:14:36.765Z,79.80
2022-10-02T01:15:44.360Z,79.70
2022-10-02T01:16:46.817Z,79.60
2022-10-02T01:17:51.068Z,79.50
2022-10-02T01:18:53.002Z,79.30
2022-10-02T01:19:55.983Z,79.60
2022-10-02T01:21:08.023Z,79.40
2022-10-02T01:22:33.995Z,79.70
2022-10-02T01:23:43.682Z,79.70
2022-10-02T01:24:52.021Z,79.70
2022-10-02T01:25:53.870Z,79.50
2022-10-02T01:26:55.720Z,79.70
2022-10-02T01:27:57.686Z,79.60
2022-10-02T01:28:59.488Z,79.60
2022-10-02T01:30:05.132Z,79.50
2022-10-02T01:31:16.297Z,79.70
2022-10-02T01:32:18.663Z,79.80
2022-10-02T01:33:21.166Z,79.80
2022-10-02T01:34:24.062Z,79.80
2022-10-02T01:35:31.669Z,79.60
2022-10-02T01:36:33.975Z,79.80
2022-10-02T01:37:39.549Z,79.70
2022-10-02T01:38:42.982Z,79.60
2022-10-02T01:39:45.324Z,79.40
2022-10-02T01:40:47.192Z,79.60
2022-10-02T01:41:49.040Z,79.50
2022-10-02T01:42:51.289Z,79.40
2022-10-02T01:43:57.593Z,79.50
2022-10-02T01:44:59.849Z,79.60
2022-10-02T01:46:07.797Z,79.60
2022-10-02T01:47:19.813Z,79.50
2022-10-02T01:48:47.387Z,79.60
2022-10-02T01:50:19.963Z,79.50
2022-10-02T01:51:33.463Z,79.70
2022-10-02T01:53:13.806Z,80.20
2022-10-02T01:54:18.688Z,80.00
2022-10-02T01:55:34.020Z,79.90
2022-10-02T01:57:02.934Z,80.30
2022-10-02T01:58:10.954Z,80.30
2022-10-02T01:59:38.393Z,80.00
2022-10-02T02:00:53.063Z,80.40
2022-10-02T02:02:09.623Z,80.40
2022-10-02T02:03:35.174Z,80.40
2022-10-02T02:04:50.308Z,80.40
2022-10-02T02:06:13.104Z,80.40
2022-10-02T02:07:25.948Z,79.80
2022-10-02T02:09:09.763Z,80.10
2022-10-02T02:10:25.176Z,80.30
2022-10-02T02:11:27.585Z,80.30
2022-10-02T02:12:51.055Z,80.40
2022-10-02T02:14:04.321Z,80.50
2022-10-02T02:15:53.775Z,80.30
2022-10-02T02:17:15.353Z,80.40
2022-10-02T02:18:34.461Z,80.70
2022-10-02T02:19:47.409Z,80.30
2022-10-02T02:20:54.164Z,80.30
2022-10-02T02:21:59.676Z,80.60
2022-10-02T02:23:08.396Z,80.50
2022-10-02T02:24:40.160Z,80.60
2022-10-02T02:25:45.850Z,81.00
2022-10-02T02:26:48.516Z,80.70
2022-10-02T02:27:54.646Z,80.50
2022-10-02T02:29:03.661Z,80.60
2022-10-02T02:30:09.498Z,80.60
2022-10-02T02:31:18.669Z,80.50
2022-10-02T02:32:28.618Z,80.50
2022-10-02T02:33:40.011Z,80.60
2022-10-02T02:34:46.986Z,80.70
2022-10-02T02:35:53.957Z,80.40
2022-10-02T02:37:01.660Z,80.20
2022-10-02T02:38:37.231Z,80.30
2022-10-02T02:39:59.856Z,80.10
2022-10-02T02:41:16.783Z,80.60
2022-10-02T02:42:32.515Z,80.20
2022-10-02T02:43:59.641Z,80.30
2022-10-02T02:45:12.201Z,80.40
2022-10-02T02:46:28.027Z,80.90
2022-10-02T02:47:45.894Z,80.90
2022-10-02T02:48:52.441Z,80.30
2022-10-02T02:50:00.264Z,80.50
2022-10-02T02:51:09.424Z,80.50
2022-10-02T02:52:18.941Z,80.60
2022-10-02T02:53:26.922Z,80.50
2022-10-02T02:54:43.640Z,80.50
2022-10-02T02:55:52.572Z,80.50
2022-10-02T02:56:56.988Z,80.30
2022-10-02T02:58:03.284Z,80.40
2022-10-02T02:59:13.421Z,80.20
2022-10-02T03:00:16.756Z,80.10
2022-10-02T03:01:18.641Z,80.40
2022-10-02T03:02:20.559Z,80.00
2022-10-02T03:03:22.647Z,80.10
2022-10-02T03:04:24.364Z,80.20
2022-10-02T03:05:28.278Z,80.00
2022-10-02T03:06:33.333Z,79.60
2022-10-02T03:07:35.446Z,79.60
2022-10-02T03:08:38.142Z,79.60
2022-10-02T03:09:40.957Z,79.40
2022-10-02T03:10:51.958Z,79.50
2022-10-02T03:12:12.144Z,79.10
2022-10-02T03:13:38.094Z,79.30
2022-10-02T03:15:08.301Z,79.60
2022-10-02T03:16:32.875Z,79.10
2022-10-02T03:17:48.370Z,79.40
2022-10-02T03:19:14.727Z,79.40
2022-10-02T03:20:28.954Z,79.00
2022-10-02T03:21:37.671Z,79.10
2022-10-02T03:23:23.523Z,79.00
2022-10-02T03:25:21.547Z,78.60
2022-10-02T03:26:45.923Z,79.10
2022-10-02T03:28:03.495Z,78.80
2022-10-02T03:29:27.347Z,79.00
2022-10-02T03:30:30.425Z,78.80
2022-10-02T03:31:33.988Z,78.50
2022-10-02T03:32:37.948Z,78.60
2022-10-02T03:33:40.426Z,78.50
2022-10-02T03:34:42.320Z,78.30
2022-10-02T03:35:45.340Z,78.20
2022-10-02T03:36:48.030Z,78.20
2022-10-02T03:37:57.086Z,78.00
2022-10-02T03:40:27.411Z,78.40
2022-10-02T03:41:29.366Z,78.00
2022-10-02T03:42:34.694Z,77.70
2022-10-02T03:43:36.440Z,77.50
2022-10-02T03:44:38.234Z,77.60
2022-10-02T03:45:51.654Z,77.70
2022-10-02T03:46:53.739Z,78.00
2022-10-02T03:47:55.681Z,77.70
2022-10-02T03:48:57.441Z,77.50
2022-10-02T03:49:59.230Z,77.30
2022-10-02T03:51:00.929Z,77.50
2022-10-02T03:52:02.759Z,77.50
2022-10-02T03:53:35.028Z,77.40
2022-10-02T03:54:37.277Z,77.80
2022-10-02T03:55:43.002Z,77.40
2022-10-02T03:56:55.795Z,77.50
2022-10-02T03:57:58.514Z,78.00
2022-10-02T03:59:02.545Z,77.40
2022-10-02T04:00:13.262Z,77.40
2022-10-02T04:01:25.789Z,77.60
2022-10-02T04:02:38.210Z,77.60
2022-10-02T04:04:03.569Z,78.00
2022-10-02T04:05:29.818Z,78.00
2022-10-02T04:06:46.322Z,77.80
2022-10-02T04:07:52.989Z,77.50
2022-10-02T04:09:02.459Z,77.50
2022-10-02T04:10:14.783Z,77.40
2022-10-02T04:11:19.325Z,77.40
2022-10-02T04:12:36.024Z,77.30
2022-10-02T04:14:02.660Z,77.40
2022-10-02T04:15:18.948Z,77.50
2022-10-02T04:16:24.952Z,77.40
2022-10-02T04:17:44.944Z,77.50
2022-10-02T04:18:59.527Z,78.10
2022-10-02T04:20:10.321Z,78.00
2022-10-02T04:21:49.677Z,78.20
2022-10-02T04:23:03.902Z,78.40
2022-10-02T04:24:26.627Z,78.30
2022-10-02T04:25:32.487Z,78.80
2022-10-02T04:26:37.727Z,78.30
2022-10-02T04:27:49.579Z,78.30
2022-10-02T04:28:58.091Z,78.30
2022-10-02T04:30:04.731Z,78.30
2022-10-02T04:31:12.758Z,78.60
2022-10-02T04:32:16.970Z,78.30
2022-10-02T04:33:19.935Z,78.50
2022-10-02T04:34:21.633Z,78.60
2022-10-02T04:35:48.172Z,78.60
2022-10-02T04:37:12.049Z,78.60
2022-10-02T04:38:45.802Z,78.90
2022-10-02T04:40:15.309Z,79.00
2022-10-02T04:41:19.846Z,79.00
2022-10-02T04:42:49.259Z,78.90
2022-10-02T04:44:15.958Z,79.40
2022-10-02T04:45:43.212Z,79.60
2022-10-02T04:47:12.280Z,79.60
2022-10-02T04:48:19.844Z,79.80
2022-10-02T04:49:42.704Z,79.60
2022-10-02T04:51:13.715Z,79.40
2022-10-02T04:52:27.281Z,79.10
2022-10-02T04:53:37.859Z,79.40
2022-10-02T04:54:55.565Z,79.90
2022-10-02T04:56:14.440Z,79.80
2022-10-02T04:57:24.895Z,79.80
2022-10-02T04:58:41.737Z,79.60
2022-10-02T05:00:09.149Z,80.00
2022-10-02T05:01:10.934Z,80.20
2022-10-02T05:02:42.927Z,79.70
2022-10-02T05:03:58.726Z,80.30
2022-10-02T05:05:05.378Z,79.80
2022-10-02T05:06:39.876Z,80.60
2022-10-02T05:08:06.280Z,80.60
2022-10-02T05:09:40.184Z,80.50
2022-10-02T05:11:03.053Z,80.60
2022-10-02T05:12:22.465Z,80.70
2022-10-02T05:13:32.824Z,80.80
2022-10-02T05:14:52.797Z,79.90
2022-10-02T05:16:17.582Z,80.10
2022-10-02T05:17:39.870Z,80.00
2022-10-02T05:19:00.805Z,80.80
2022-10-02T05:20:24.146Z,80.00
2022-10-02T05:22:11.982Z,80.50
2022-10-02T05:23:44.985Z,80.50
2022-10-02T05:24:58.588Z,80.50
2022-10-02T05:26:28.063Z,80.80
2022-10-02T05:28:00.627Z,80.70
2022-10-02T05:29:31.201Z,80.50
2022-10-02T05:30:51.107Z,80.50
2022-10-02T05:32:08.143Z,79.90
2022-10-02T05:33:24.858Z,80.00
2022-10-02T05:34:52.436Z,80.70
2022-10-02T05:36:09.685Z,79.90
2022-10-02T05:37:52.613Z,80.50
2022-10-02T05:39:14.148Z,80.50
2022-10-02T05:40:29.610Z,80.60
2022-10-02T05:41:48.598Z,80.50
2022-10-02T05:43:12.744Z,80.50
2022-10-02T05:44:38.538Z,80.30
2022-10-02T05:45:52.291Z,79.80
2022-10-02T05:47:19.404Z,79.50
2022-10-02T05:48:34.634Z,79.30
2022-10-02T05:49:41.558Z,79.70
2022-10-02T05:50:49.383Z,79.30
2022-10-02T05:52:10.228Z,79.40
2022-10-02T05:53:35.289Z,78.90
2022-10-02T05:54:47.003Z,79.10
2022-10-02T05:55:54.973Z,79.00
2022-10-02T05:57:16.772Z,79.00
2022-10-02T05:58:32.840Z,79.70
2022-10-02T05:59:37.617Z,78.60
2022-10-02T06:00:47.950Z,78.70
2022-10-02T06:01:51.018Z,78.60
2022-10-02T06:03:17.903Z,78.40
2022-10-02T06:04:37.240Z,78.20
2022-10-02T06:06:10.319Z,79.10
2022-10-02T06:07:17.903Z,78.30
2022-10-02T06:08:27.430Z,78.50
2022-10-02T06:09:53.738Z,78.50
2022-10-02T06:11:01.132Z,78.90
2022-10-02T06:12:20.716Z,78.70
2022-10-02T06:13:30.112Z,78.60
2022-10-02T06:14:42.528Z,78.80
2022-10-02T06:16:00.196Z,78.80
2022-10-02T06:17:15.033Z,78.60
2022-10-02T06:18:23.880Z,78.70
2022-10-02T06:19:37.404Z,78.60
2022-10-02T06:21:10.838Z,78.30
2022-10-02T06:22:23.187Z,78.40
2022-10-02T06:23:31.300Z,78.20
2022-10-02T06:24:52.396Z,78.40
2022-10-02T06:26:09.907Z,78.30
2022-10-02T06:27:28.033Z,78.00
2022-10-02T06:28:37.961Z,78.00
2022-10-02T06:29:42.297Z,78.30
2022-10-02T06:30:49.711Z,77.60
2022-10-02T06:32:10.290Z,77.90
2022-10-02T06:33:26.216Z,77.60
2022-10-02T06:34:28.758Z,77.90
2022-10-02T06:35:54.838Z,78.20
2022-10-02T06:37:19.587Z,77.40
2022-10-02T06:38:36.707Z,77.30
2022-10-02T06:40:11.896Z,77.50
2022-10-02T06:41:16.261Z,77.40
2022-10-02T06:42:27.267Z,77.70
2022-10-02T06:43:54.809Z,77.40
2022-10-02T06:45:20.281Z,77.40
2022-10-02T06:46:50.645Z,77.30
2022-10-02T06:48:07.694Z,76.40
2022-10-02T06:49:46.426Z,76.80
2022-10-02T06:51:00.924Z,76.80
2022-10-02T06:52:12.146Z,75.50
2022-10-02T06:53:28.080Z,75.60
2022-10-02T06:54:38.711Z,76.90
2022-10-02T06:55:46.421Z,75.90
2022-10-02T06:57:06.866Z,75.60
2022-10-02T06:58:14.656Z,76.70
2022-10-02T06:59:28.309Z,75.60
2022-10-02T07:00:33.812Z,75.60
2022-10-02T07:01:59.068Z,75.60
2022-10-02T07:03:23.892Z,76.00
2022-10-02T07:04:52.828Z,75.30
2022-10-02T07:06:22.220Z,75.70
2022-10-02T07:07:42.195Z,75.50
2022-10-02T07:08:58.347Z,75.10
2022-10-02T07:10:26.129Z,75.20
2022-10-02T07:12:04.309Z,75.30
2022-10-02T07:13:22.687Z,75.30
2022-10-02T07:14:36.132Z,74.50
2022-10-02T07:15:40.889Z,74.70
2022-10-02T07:17:00.813Z,74.40
2022-10-02T07:18:22.095Z,74.50
2022-10-02T07:19:35.935Z,74.50
2022-10-02T07:20:54.961Z,73.70
2022-10-02T07:22:46.706Z,74.30
2022-10-02T07:24:21.684Z,74.30
2022-10-02T07:25:49.693Z,73.80
2022-10-02T07:27:10.286Z,73.70
2022-10-02T07:28:11.948Z,73.70
2022-10-02T07:29:51.103Z,73.50
2022-10-02T07:31:05.233Z,73.60
2022-10-02T07:32:48.529Z,73.80
2022-10-02T07:34:00.299Z,73.90
2022-10-02T07:35:37.354Z,73.70
2022-10-02T07:36:54.042Z,73.40
2022-10-02T07:38:01.696Z,72.90
2022-10-02T07:39:27.839Z,73.40
2022-10-02T07:40:47.339Z,73.40
2022-10-02T07:42:15.226Z,73.60
2022-10-02T07:43:30.874Z,73.90
2022-10-02T07:44:44.834Z,73.80
2022-10-02T07:46:07.337Z,73.30
2022-10-02T07:47:11.111Z,72.60
2022-10-02T07:48:32.385Z,72.90
2022-10-02T07:49:43.489Z,73.00
2022-10-02T07:51:02.300Z,72.60
2022-10-02T07:52:17.212Z,72.20
2022-10-02T07:53:28.259Z,72.20
2022-10-02T07:54:30.024Z,72.40
2022-10-02T07:55:33.759Z,71.80
2022-10-02T07:56:37.481Z,71.90
2022-10-02T07:57:45.716Z,72.00
2022-10-02T07:58:54.775Z,72.20
2022-10-02T08:00:06.291Z,72.50
2022-10-02T08:01:16.593Z,72.60
2022-10-02T08:02:37.532Z,72.10
2022-10-02T08:04:00.492Z,71.10
2022-10-02T08:05:09.165Z,71.50
2022-10-02T08:06:13.515Z,71.70
2022-10-02T08:07:15.290Z,71.70
2022-10-02T08:08:47.725Z,71.40
2022-10-02T08:09:52.645Z,71.20
2022-10-02T08:11:02.599Z,70.70
2022-10-02T08:12:26.233Z,71.30
2022-10-02T08:13:33.872Z,71.40
2022-10-02T08:14:41.654Z,70.80
2022-10-02T08:15:45.550Z,70.50
2022-10-02T08:16:53.702Z,69.80
2022-10-02T08:18:29.931Z,69.70
2022-10-02T08:19:39.473Z,71.00
2022-10-02T08:20:44.418Z,69.70
2022-10-02T08:21:50.043Z,69.70
2022-10-02T08:22:58.039Z,70.20
2022-10-02T08:24:06.845Z,69.10
2022-10-02T08:25:20.285Z,69.50
2022-10-02T08:26:36.964Z,70.00
2022-10-02T08:27:55.349Z,69.80
2022-10-02T08:29:17.457Z,69.80
2022-10-02T08:30:19.388Z,69.40
2022-10-02T08:31:23.658Z,69.50
2022-10-02T08:32:34.551Z,69.00
2022-10-02T08:33:37.239Z,69.20
2022-10-02T08:34:40.830Z,68.80
2022-10-02T08:36:00.437Z,68.90
2022-10-02T08:37:15.293Z,69.20
2022-10-02T08:38:30.005Z,68.80
2022-10-02T08:39:38.952Z,69.30
2022-10-02T08:41:10.183Z,69.20
2022-10-02T08:42:20.971Z,68.30
2022-10-02T08:43:45.071Z,68.50
2022-10-02T08:45:21.525Z,68.60
2022-10-02T08:46:38.581Z,69.30
2022-10-02T08:47:55.930Z,68.20
2022-10-02T08:49:18.931Z,68.00
2022-10-02T08:50:30.160Z,68.90
2022-10-02T08:52:06.968Z,69.10
2022-10-02T08:53:47.093Z,69.80
2022-10-02T08:55:26.225Z,68.10
2022-10-02T08:56:44.625Z,67.10
2022-10-02T08:58:27.337Z,67.20
2022-10-02T08:59:55.640Z,66.80
2022-10-02T09:01:38.044Z,68.00
2022-10-02T09:03:01.087Z,68.10
2022-10-02T09:04:44.751Z,67.10
2022-10-02T09:06:02.075Z,66.60
2022-10-02T09:07:09.436Z,67.40
2022-10-02T09:08:37.463Z,67.20
2022-10-02T09:09:47.879Z,67.10
2022-10-02T09:11:27.452Z,66.60
2022-10-02T09:12:58.192Z,66.60
2022-10-02T09:14:07.101Z,66.80
2022-10-02T09:15:25.912Z,66.80
2022-10-02T09:16:58.941Z,66.60
2022-10-02T09:18:03.720Z,65.90
2022-10-02T09:19:41.352Z,66.40
2022-10-02T09:20:54.100Z,66.80
2022-10-02T09:22:11.355Z,65.90
2022-10-02T09:23:22.053Z,66.70
2022-10-02T09:24:48.471Z,65.40
2022-10-02T09:26:34.514Z,65.70
2022-10-02T09:28:00.704Z,65.10
2022-10-02T09:29:19.506Z,67.00
2022-10-02T09:31:08.890Z,66.20
2022-10-02T09:32:51.567Z,66.60
2022-10-02T09:34:06.692Z,66.30
2022-10-02T09:35:47.040Z,65.70
2022-10-02T09:37:11.971Z,65.20
2022-10-02T09:38:39.444Z,65.90
2022-10-02T09:39:51.244Z,65.20
2022-10-02T09:40:56.024Z,66.40
2022-10-02T09:42:35.309Z,67.10
2022-10-02T09:44:16.755Z,68.00
2022-10-02T09:45:27.319Z,69.10
2022-10-02T09:46:35.794Z,70.10
2022-10-02T09:47:43.368Z,70.10
2022-10-02T09:49:14.393Z,68.50
2022-10-02T09:50:40.402Z,67.50
2022-10-02T09:51:44.818Z,66.30
2022-10-02T09:52:50.206Z,67.60
2022-10-02T09:54:29.150Z,67.70
2022-10-02T09:55:50.077Z,68.70
2022-10-02T09:57:36.864Z,70.90
2022-10-02T09:58:59.322Z,72.00
2022-10-02T10:00:15.945Z,72.50
2022-10-02T10:01:51.798Z,72.90
2022-10-02T10:03:17.261Z,73.60
2022-10-02T10:04:54.130Z,73.10
2022-10-02T10:06:33.219Z,72.60
2022-10-02T10:07:43.940Z,71.90
2022-10-02T10:09:16.361Z,71.80
2022-10-02T10:10:24.201Z,71.90
2022-10-02T10:11:47.925Z,70.10
2022-10-02T10:13:27.031Z,71.50
2022-10-02T10:14:48.481Z,71.50
2022-10-02T10:16:02.559Z,69.60
2022-10-02T10:17:42.160Z,69.10
2022-10-02T10:19:22.289Z,68.20
2022-10-02T10:20:54.147Z,70.20
2022-10-02T10:22:23.395Z,69.00
2022-10-02T10:23:48.121Z,69.60
2022-10-02T10:25:11.072Z,68.90
2022-10-02T10:26:49.766Z,67.70
2022-10-02T10:28:29.026Z,68.30
2022-10-02T10:30:03.934Z,68.50
2022-10-02T10:31:39.105Z,68.10
2022-10-02T10:33:14.619Z,67.90
2022-10-02T10:34:57.720Z,67.50
2022-10-02T10:36:08.166Z,66.80
2022-10-02T10:37:45.698Z,67.00
2022-10-02T10:38:58.239Z,67.10
2022-10-02T10:40:23.956Z,64.40
2022-10-02T10:41:49.247Z,66.20
2022-10-02T10:43:07.760Z,65.10
2022-10-02T10:44:42.903Z,65.40
2022-10-02T10:46:12.698Z,64.60
2022-10-02T10:47:51.761Z,65.10
2022-10-02T10:49:31.716Z,64.70
2022-10-02T10:50:52.314Z,65.10
2022-10-02T10:52:14.175Z,65.70
2022-10-02T10:53:28.299Z,67.20
2022-10-02T10:54:51.390Z,66.00
2022-10-02T10:56:21.755Z,66.30
2022-10-02T10:57:52.007Z,66.40
2022-10-02T10:59:29.561Z,66.50
2022-10-02T11:00:56.153Z,66.50
2022-10-02T11:02:37.922Z,66.80
2022-10-02T11:04:01.536Z,67.90
2022-10-02T11:05:06.733Z,68.30
2022-10-02T11:06:08.396Z,67.30
2022-10-02T11:07:39.346Z,67.70
2022-10-02T11:09:10.756Z,66.80
2022-10-02T11:10:21.455Z,66.80
2022-10-02T11:11:57.710Z,66.70
2022-10-02T11:13:26.983Z,66.80
2022-10-02T11:14:52.560Z,66.40
2022-10-02T11:16:20.151Z,66.10
2022-10-02T11:17:43.399Z,66.20
2022-10-02T11:19:03.786Z,66.50
2022-10-02T11:20:26.297Z,67.30
2022-10-02T11:21:39.760Z,68.00
2022-10-02T11:23:12.591Z,68.20
2022-10-02T11:24:39.795Z,68.30
2022-10-02T11:25:52.745Z,68.40
2022-10-02T11:27:10.900Z,69.20
2022-10-02T11:28:44.915Z,69.00
2022-10-02T11:30:24.078Z,68.50
2022-10-02T11:31:55.985Z,69.00
2022-10-02T11:33:39.205Z,69.20
2022-10-02T11:35:20.909Z,68.60
2022-10-02T11:36:42.970Z,68.60
2022-10-02T11:38:03.848Z,69.00
2022-10-02T11:39:14.938Z,69.10
2022-10-02T11:40:37.476Z,69.40
2022-10-02T11:42:05.558Z,67.40
2022-10-02T11:43:16.237Z,68.40
2022-10-02T11:44:34.644Z,68.50
2022-10-02T11:46:00.346Z,68.00
2022-10-02T11:47:20.264Z,67.80
2022-10-02T11:48:43.855Z,68.00
2022-10-02T11:50:01.885Z,68.70
2022-10-02T11:51:10.861Z,68.70
2022-10-02T11:52:34.228Z,67.10
2022-10-02T11:54:10.874Z,67.70
2022-10-02T11:55:30.636Z,67.00
2022-10-02T11:57:01.881Z,66.50
2022-10-02T11:58:21.091Z,66.70
2022-10-02T11:59:56.373Z,66.80
2022-10-02T12:01:33.167Z,66.80
2022-10-02T12:02:41.431Z,66.80
2022-10-02T12:04:04.290Z,67.40
2022-10-02T12:05:38.018Z,66.80
2022-10-02T12:07:17.503Z,68.10
2022-10-02T12:08:32.533Z,67.60
2022-10-02T12:10:21.928Z,66.80
2022-10-02T12:11:42.114Z,66.00
2022-10-02T12:13:15.976Z,66.50
2022-10-02T12:14:34.688Z,66.30
2022-10-02T12:16:04.279Z,67.40
2022-10-02T12:17:34.321Z,66.40
2022-10-02T12:19:01.714Z,65.80
2022-10-02T12:20:41.517Z,66.90
2022-10-02T12:22:23.534Z,66.80
2022-10-02T12:24:03.858Z,65.90
2022-10-02T12:25:55.221Z,66.40
2022-10-02T12:27:15.877Z,66.20
2022-10-02T12:28:45.483Z,67.80
2022-10-02T12:30:16.185Z,66.40
2022-10-02T12:31:33.556Z,65.90
2022-10-02T12:32:45.290Z,65.90
2022-10-02T12:34:01.691Z,66.00
2022-10-02T12:35:32.695Z,65.90
2022-10-02T12:36:58.371Z,65.70
2022-10-02T12:38:16.639Z,67.20
2022-10-02T12:39:30.144Z,67.10
2022-10-02T12:40:52.599Z,66.70
2022-10-02T12:42:31.732Z,66.80
2022-10-02T12:44:17.090Z,66.80
2022-10-02T12:45:37.219Z,66.50
2022-10-02T12:46:47.787Z,67.30
2022-10-02T12:48:04.323Z,67.20
2022-10-02T12:49:25.292Z,68.00
2022-10-02T12:50:44.997Z,68.10
2022-10-02T12:52:01.007Z,68.80
2022-10-02T12:53:36.414Z,69.20
2022-10-02T12:55:07.381Z,69.00
2022-10-02T12:56:39.990Z,68.90
2022-10-02T12:57:55.419Z,68.60
2022-10-02T12:59:06.204Z,68.00
2022-10-02T13:00:16.990Z,68.60
2022-10-02T13:01:31.721Z,69.50
2022-10-02T13:03:00.311Z,68.90
2022-10-02T13:04:19.269Z,68.90
2022-10-02T13:05:46.804Z,69.60
2022-10-02T13:07:27.571Z,69.90
2022-10-02T13:08:48.338Z,69.30
2022-10-02T13:10:05.188Z,68.80
2022-10-02T13:11:18.532Z,67.70
2022-10-02T13:12:52.413Z,67.60
2022-10-02T13:14:02.641Z,67.50
2022-10-02T13:15:18.833Z,67.40
2022-10-02T13:16:44.937Z,68.00
2022-10-02T13:18:09.111Z,69.10
2022-10-02T13:19:31.067Z,68.60
2022-10-02T13:21:11.388Z,68.70
2022-10-02T13:22:22.404Z,67.80
2022-10-02T13:23:54.302Z,67.60
2022-10-02T13:25:18.948Z,67.70
2022-10-02T13:26:41.179Z,68.50
2022-10-02T13:27:59.275Z,68.30
2022-10-02T13:29:03.810Z,67.70
2022-10-02T13:30:11.243Z,67.80
2022-10-02T13:31:27.449Z,67.40
2022-10-02T13:32:52.196Z,67.80
2022-10-02T13:34:12.972Z,68.00
2022-10-02T13:35:36.235Z,68.60
2022-10-02T13:36:52.918Z,67.70
2022-10-02T13:38:17.979Z,66.50
2022-10-02T13:39:37.034Z,67.70
2022-10-02T13:40:47.452Z,68.30
2022-10-02T13:42:23.440Z,67.70
2022-10-02T13:43:25.043Z,67.60
2022-10-02T13:44:29.747Z,68.40
2022-10-02T13:45:47.643Z,67.90
2022-10-02T13:47:23.376Z,68.40
2022-10-02T13:48:43.895Z,68.70
2022-10-02T13:49:54.056Z,68.50
2022-10-02T13:51:18.388Z,68.80
2022-10-02T13:52:22.778Z,69.10
2022-10-02T13:53:43.271Z,70.80
2022-10-02T13:55:23.305Z,69.10
2022-10-02T13:57:03.353Z,69.70
2022-10-02T13:58:36.423Z,69.90
2022-10-02T13:59:58.520Z,69.80
2022-10-02T14:01:21.479Z,70.10
2022-10-02T14:02:41.699Z,69.90
2022-10-02T14:04:14.860Z,69.70
2022-10-02T14:05:23.614Z,70.50
2022-10-02T14:07:05.382Z,69.30
2022-10-02T14:08:39.202Z,69.20
2022-10-02T14:09:53.019Z,69.40
2022-10-02T14:11:29.000Z,70.00
2022-10-02T14:12:46.078Z,69.50
2022-10-02T14:14:06.683Z,68.10
2022-10-02T14:15:31.676Z,67.80
2022-10-02T14:16:54.563Z,68.30
2022-10-02T14:18:21.185Z,69.20
2022-10-02T14:19:39.780Z,69.10
2022-10-02T14:20:55.640Z,68.70
2022-10-02T14:22:38.819Z,68.90
2022-10-02T14:24:15.423Z,68.30
2022-10-02T14:25:48.949Z,68.40
2022-10-02T14:27:05.988Z,68.40
2022-10-02T14:28:22.074Z,68.10
2022-10-02T14:29:40.998Z,68.80
2022-10-02T14:30:45.634Z,68.20
2022-10-02T14:32:29.591Z,67.70
2022-10-02T14:33:49.960Z,68.30
2022-10-02T14:35:19.336Z,67.80
2022-10-02T14:36:38.568Z,67.80
2022-10-02T14:37:53.152Z,67.70
2022-10-02T14:39:12.521Z,68.40
2022-10-02T14:40:19.374Z,68.20
2022-10-02T14:41:39.306Z,67.90
2022-10-02T14:43:08.995Z,68.60
2022-10-02T14:44:31.506Z,69.00
2022-10-02T14:46:00.032Z,68.20
2022-10-02T14:47:21.262Z,69.50
2022-10-02T14:48:34.956Z,69.70
2022-10-02T14:49:53.932Z,68.30
2022-10-02T14:51:28.866Z,68.20
2022-10-02T14:52:46.473Z,68.60
2022-10-02T14:54:21.400Z,69.00
2022-10-02T14:55:38.639Z,68.20
2022-10-02T14:57:01.804Z,68.50
2022-10-02T14:58:06.174Z,69.90
2022-10-02T14:59:10.889Z,70.60
2022-10-02T15:00:21.589Z,69.40
2022-10-02T15:01:26.424Z,69.70
2022-10-02T15:02:54.201Z,69.50
2022-10-02T15:04:28.336Z,69.90
2022-10-02T15:05:47.835Z,69.70
2022-10-02T15:06:56.274Z,69.90
2022-10-02T15:07:58.627Z,71.30
2022-10-02T15:09:27.568Z,70.10
2022-10-02T15:10:34.629Z,71.40
2022-10-02T15:11:36.473Z,69.80
2022-10-02T15:13:01.621Z,70.50
2022-10-02T15:14:19.699Z,71.10
2022-10-02T15:15:33.413Z,70.20
2022-10-02T15:17:18.795Z,70.10
2022-10-02T15:18:25.204Z,70.00
2022-10-02T15:19:38.018Z,70.20
2022-10-02T15:20:59.413Z,70.10
2022-10-02T15:22:19.373Z,71.00
2022-10-02T15:23:41.480Z,70.30
2022-10-02T15:24:58.547Z,71.40
2022-10-02T15:26:26.168Z,70.40
2022-10-02T15:27:50.744Z,71.30
2022-10-02T15:29:07.913Z,71.00
2022-10-02T15:30:23.714Z,70.70
2022-10-02T15:31:44.310Z,71.60
2022-10-02T15:33:16.587Z,70.80
2022-10-02T15:34:40.549Z,70.70
2022-10-02T15:35:52.333Z,71.00
2022-10-02T15:37:05.049Z,71.20
2022-10-02T15:38:19.048Z,71.90
2022-10-02T15:39:54.887Z,71.70
2022-10-02T15:41:20.801Z,71.90
2022-10-02T15:42:53.206Z,71.00
2022-10-02T15:44:51.067Z,71.30
2022-10-02T15:46:16.864Z,72.20
2022-10-02T15:47:24.599Z,72.30
2022-10-02T15:48:58.531Z,72.20
2022-10-02T15:50:10.573Z,72.30
2022-10-02T15:51:14.992Z,72.50
2022-10-02T15:52:37.081Z,72.30
2022-10-02T15:54:12.436Z,72.80
2022-10-02T15:55:31.781Z,72.60
2022-10-02T15:56:47.158Z,72.80
2022-10-02T15:58:03.924Z,72.80
2022-10-02T15:59:17.600Z,73.00
2022-10-02T16:00:22.541Z,73.00
2022-10-02T16:01:27.067Z,73.00
2022-10-02T16:03:09.665Z,73.20
2022-10-02T16:04:29.465Z,73.10
2022-10-02T16:05:31.073Z,72.80
2022-10-02T16:06:53.562Z,73.40
2022-10-02T16:08:16.618Z,73.20
2022-10-02T16:09:27.685Z,73.20
2022-10-02T16:10:55.930Z,73.40
2022-10-02T16:12:14.166Z,73.60
2022-10-02T16:13:55.088Z,73.30
2022-10-02T16:15:15.131Z,73.30
2022-10-02T16:16:46.251Z,73.40
2022-10-02T16:18:20.327Z,73.00
2022-10-02T16:19:53.794Z,73.40
2022-10-02T16:21:45.086Z,73.30
2022-10-02T16:23:19.119Z,73.60
2022-10-02T16:24:26.915Z,73.70
2022-10-02T16:25:54.200Z,73.80
2022-10-02T16:27:27.957Z,73.90
2022-10-02T16:28:57.875Z,73.80
2022-10-02T16:30:13.327Z,74.30
2022-10-02T16:31:45.513Z,74.80
2022-10-02T16:33:05.090Z,74.20
2022-10-02T16:34:21.761Z,74.30
2022-10-02T16:35:55.656Z,74.20
2022-10-02T16:37:09.629Z,74.70
2022-10-02T16:38:17.997Z,75.40
2022-10-02T16:39:38.677Z,75.20
2022-10-02T16:40:54.008Z,75.20
2022-10-02T16:42:21.870Z,75.70
2022-10-02T16:43:43.147Z,75.20
2022-10-02T16:45:02.901Z,75.20
2022-10-02T16:46:44.067Z,75.70
2022-10-02T16:47:48.983Z,76.00
2022-10-02T16:49:08.363Z,76.00
2022-10-02T16:50:13.046Z,76.20
2022-10-02T16:51:28.066Z,76.40
2022-10-02T16:52:48.899Z,77.10
2022-10-02T16:53:54.721Z,76.30
2022-10-02T16:55:35.649Z,76.80
2022-10-02T16:57:18.863Z,77.00